ALAMO64 KDLF-KDLF
Flight info
| Callsign | ALAMO64 |
|---|---|
| Flight time | 0h 2m |
| Altitude | 4000 |
| Route | ZADOM |
| Aircraft | H60/L-DGILORTUVY/SB2 |
Departure
| Time | 2026-05-06 01:57 |
|---|---|
| Airport | Laughlin Air Force Base (KDLF) |
Arrival
| Time | 2026-05-06 02:00 |
|---|---|
| Airport | Laughlin Air Force Base (KDLF) |
| Time | Latitude | Longitude | Altitude | Speed | Heading |
|---|---|---|---|---|---|
| 2026-05-06 01:45 | 29.35329 | -100.77790 | 1089 ft | 0 kts | 224° |
| 2026-05-06 01:53 | 29.35328 | -100.77790 | 1089 ft | 1 kts | 223° |
| 2026-05-06 01:53 | 29.35303 | -100.77776 | 1089 ft | 8 kts | 134° |
| 2026-05-06 01:53 | 29.35261 | -100.77723 | 1090 ft | 0 kts | 131° |
| 2026-05-06 01:54 | 29.35251 | -100.77700 | 1090 ft | 11 kts | 101° |
| 2026-05-06 01:54 | 29.35251 | -100.77636 | 1090 ft | 7 kts | 75° |
| 2026-05-06 01:54 | 29.35263 | -100.77580 | 1091 ft | 7 kts | 75° |
| 2026-05-06 01:55 | 29.35278 | -100.77520 | 1091 ft | 9 kts | 73° |
| 2026-05-06 01:55 | 29.35301 | -100.77448 | 1092 ft | 8 kts | 47° |
| 2026-05-06 01:55 | 29.35351 | -100.77447 | 1092 ft | 8 kts | 315° |
| 2026-05-06 01:55 | 29.35366 | -100.77464 | 1092 ft | 0 kts | 316° |
| 2026-05-06 01:56 | 29.35385 | -100.77483 | 1107 ft | 14 kts | 314° |
| 2026-05-06 01:56 | 29.35587 | -100.77703 | 1147 ft | 64 kts | 315° |
| 2026-05-06 01:56 | 29.36031 | -100.78140 | 1383 ft | 101 kts | 323° |
| 2026-05-06 01:56 | 29.36491 | -100.78922 | 1418 ft | 137 kts | 292° |
| 2026-05-06 01:57 | 29.36675 | -100.80019 | 1496 ft | 140 kts | 278° |
| 2026-05-06 01:57 | 29.36895 | -100.81095 | 1752 ft | 140 kts | 289° |
| 2026-05-06 01:57 | 29.37222 | -100.82179 | 1814 ft | 148 kts | 288° |
| 2026-05-06 01:57 | 29.37510 | -100.83310 | 1811 ft | 148 kts | 284° |
| 2026-05-06 01:58 | 29.37785 | -100.84444 | 1731 ft | 144 kts | 285° |
| 2026-05-06 01:58 | 29.38031 | -100.85480 | 1723 ft | 128 kts | 284° |
| 2026-05-06 01:58 | 29.38110 | -100.86469 | 1771 ft | 126 kts | 259° |
| 2026-05-06 01:58 | 29.37809 | -100.87435 | 1657 ft | 130 kts | 245° |
| 2026-05-06 01:59 | 29.37415 | -100.88395 | 1674 ft | 142 kts | 242° |
| 2026-05-06 01:59 | 29.36975 | -100.89429 | 1672 ft | 142 kts | 252° |
| 2026-05-06 01:59 | 29.36815 | -100.90528 | 1660 ft | 143 kts | 267° |
| 2026-05-06 01:59 | 29.36750 | -100.91662 | 1381 ft | 134 kts | 284° |
| 2026-05-06 02:00 | 29.37093 | -100.92281 | 1343 ft | 45 kts | 22° |
| 2026-05-06 02:00 | 29.37066 | -100.92128 | 1048 ft | 25 kts | 121° |
| 2026-05-06 02:00 | 29.37058 | -100.92121 | 996 ft | 0 kts | 114° |
| 2026-05-06 02:01 | 29.37054 | -100.92115 | 1005 ft | 6 kts | 120° |
| 2026-05-06 02:01 | 29.37006 | -100.92111 | 1006 ft | 8 kts | 232° |
| 2026-05-06 02:01 | 29.36962 | -100.92164 | 1006 ft | 9 kts | 231° |
| 2026-05-06 02:01 | 29.36928 | -100.92210 | 1010 ft | 12 kts | 286° |
| 2026-05-06 02:02 | 29.37087 | -100.92394 | 1024 ft | 62 kts | 316° |
| 2026-05-06 02:02 | 29.37573 | -100.92841 | 1072 ft | 113 kts | 319° |
| 2026-05-06 02:02 | 29.38207 | -100.93463 | 1222 ft | 121 kts | 322° |
| 2026-05-06 02:02 | 29.38865 | -100.94091 | 1632 ft | 127 kts | 322° |
| 2026-05-06 02:03 | 29.39586 | -100.94761 | 1710 ft | 139 kts | 320° |
| 2026-05-06 02:03 | 29.40352 | -100.95470 | 1677 ft | 143 kts | 321° |
| 2026-05-06 02:03 | 29.41121 | -100.96210 | 1815 ft | 146 kts | 321° |
| 2026-05-06 02:03 | 29.41904 | -100.96972 | 1912 ft | 148 kts | 321° |
| 2026-05-06 02:04 | 29.42679 | -100.97748 | 2020 ft | 148 kts | 321° |
| 2026-05-06 02:04 | 29.43415 | -100.98581 | 2131 ft | 151 kts | 307° |
| 2026-05-06 02:04 | 29.43901 | -100.99653 | 2220 ft | 153 kts | 292° |
| 2026-05-06 02:04 | 29.44314 | -101.00731 | 2362 ft | 150 kts | 292° |
| 2026-05-06 02:05 | 29.44724 | -101.01812 | 2601 ft | 148 kts | 292° |
| 2026-05-06 02:05 | 29.45127 | -101.02885 | 2823 ft | 146 kts | 292° |
| 2026-05-06 02:05 | 29.45519 | -101.03961 | 2964 ft | 147 kts | 292° |
| 2026-05-06 02:05 | 29.45914 | -101.05048 | 3035 ft | 149 kts | 292° |
| 2026-05-06 02:06 | 29.46312 | -101.06150 | 3197 ft | 150 kts | 292° |
| 2026-05-06 02:06 | 29.46701 | -101.07246 | 3383 ft | 143 kts | 292° |
| 2026-05-06 02:06 | 29.47077 | -101.08334 | 3613 ft | 147 kts | 292° |
| 2026-05-06 02:06 | 29.47440 | -101.09393 | 3741 ft | 146 kts | 292° |
| 2026-05-06 02:07 | 29.47809 | -101.10495 | 3854 ft | 148 kts | 292° |
| 2026-05-06 02:07 | 29.48167 | -101.11595 | 3934 ft | 147 kts | 292° |
| 2026-05-06 02:07 | 29.48524 | -101.12685 | 3936 ft | 146 kts | 292° |
| 2026-05-06 02:07 | 29.48878 | -101.13763 | 3942 ft | 146 kts | 292° |
| 2026-05-06 02:08 | 29.49229 | -101.14845 | 3947 ft | 143 kts | 294° |
| 2026-05-06 02:08 | 29.49728 | -101.15830 | 3950 ft | 143 kts | 311° |
| 2026-05-06 02:08 | 29.50477 | -101.16570 | 3961 ft | 142 kts | 328° |
| 2026-05-06 02:08 | 29.51294 | -101.17239 | 3956 ft | 145 kts | 328° |
| 2026-05-06 02:09 | 29.52103 | -101.17902 | 3961 ft | 142 kts | 328° |
| 2026-05-06 02:09 | 29.52790 | -101.18737 | 3955 ft | 148 kts | 308° |
| 2026-05-06 02:09 | 29.53227 | -101.19827 | 3937 ft | 154 kts | 289° |
| 2026-05-06 02:09 | 29.53456 | -101.21020 | 3957 ft | 143 kts | 283° |
| 2026-05-06 02:10 | 29.53679 | -101.22172 | 3954 ft | 149 kts | 284° |
| 2026-05-06 02:10 | 29.53906 | -101.23319 | 3946 ft | 147 kts | 284° |
| 2026-05-06 02:10 | 29.54127 | -101.24464 | 3949 ft | 146 kts | 284° |
| 2026-05-06 02:10 | 29.54349 | -101.25592 | 3950 ft | 145 kts | 284° |
| 2026-05-06 02:11 | 29.54577 | -101.26771 | 3912 ft | 160 kts | 284° |
| 2026-05-06 02:11 | 29.54829 | -101.28062 | 3918 ft | 171 kts | 284° |
| 2026-05-06 02:11 | 29.55092 | -101.29414 | 3924 ft | 174 kts | 284° |
| 2026-05-06 02:11 | 29.55338 | -101.30611 | 3953 ft | 140 kts | 284° |
| 2026-05-06 02:12 | 29.55584 | -101.31740 | 3948 ft | 149 kts | 284° |
| 2026-05-06 02:12 | 29.55841 | -101.32974 | 3933 ft | 165 kts | 284° |
| 2026-05-06 02:12 | 29.56125 | -101.34276 | 3942 ft | 169 kts | 285° |
| 2026-05-06 02:12 | 29.56490 | -101.35564 | 3944 ft | 169 kts | 288° |
| 2026-05-06 02:13 | 29.56862 | -101.36845 | 3944 ft | 167 kts | 290° |
| 2026-05-06 02:13 | 29.57217 | -101.37983 | 3956 ft | 150 kts | 290° |
| 2026-05-06 02:13 | 29.57556 | -101.39087 | 3950 ft | 144 kts | 290° |
| 2026-05-06 02:13 | 29.57897 | -101.40178 | 3943 ft | 143 kts | 290° |
| 2026-05-06 02:14 | 29.58254 | -101.41251 | 3937 ft | 145 kts | 292° |
| 2026-05-06 02:14 | 29.58644 | -101.42317 | 3939 ft | 145 kts | 293° |
| 2026-05-06 02:14 | 29.59036 | -101.43385 | 3934 ft | 146 kts | 293° |
| 2026-05-06 02:14 | 29.59417 | -101.44458 | 3943 ft | 147 kts | 291° |
| 2026-05-06 02:15 | 29.59833 | -101.45715 | 3853 ft | 188 kts | 291° |
| 2026-05-06 02:15 | 29.60324 | -101.47164 | 3470 ft | 186 kts | 291° |
| 2026-05-06 02:15 | 29.60743 | -101.48392 | 3665 ft | 146 kts | 291° |
| 2026-05-06 02:15 | 29.61104 | -101.49427 | 3629 ft | 148 kts | 291° |
| 2026-05-06 02:16 | 29.61473 | -101.50507 | 3607 ft | 145 kts | 291° |
| 2026-05-06 02:16 | 29.61838 | -101.51592 | 3599 ft | 145 kts | 291° |
| 2026-05-06 02:16 | 29.62212 | -101.52676 | 3591 ft | 146 kts | 291° |
| 2026-05-06 02:16 | 29.62600 | -101.53761 | 3587 ft | 147 kts | 291° |
| 2026-05-06 02:17 | 29.62983 | -101.54844 | 3587 ft | 146 kts | 291° |
| 2026-05-06 02:17 | 29.63365 | -101.55923 | 3586 ft | 145 kts | 291° |
| 2026-05-06 02:17 | 29.63730 | -101.56944 | 3597 ft | 131 kts | 291° |
| 2026-05-06 02:17 | 29.64112 | -101.58010 | 3579 ft | 144 kts | 291° |
| 2026-05-06 02:18 | 29.64489 | -101.59070 | 3582 ft | 145 kts | 291° |
| 2026-05-06 02:18 | 29.64872 | -101.60158 | 3584 ft | 144 kts | 291° |
| 2026-05-06 02:18 | 29.65232 | -101.61216 | 3581 ft | 144 kts | 291° |
| 2026-05-06 02:18 | 29.65600 | -101.62305 | 3582 ft | 145 kts | 291° |
| 2026-05-06 02:19 | 29.65972 | -101.63389 | 3579 ft | 147 kts | 291° |
| 2026-05-06 02:19 | 29.66357 | -101.64481 | 3580 ft | 147 kts | 291° |
| 2026-05-06 02:19 | 29.66743 | -101.65572 | 3579 ft | 147 kts | 291° |
| 2026-05-06 02:19 | 29.67141 | -101.66699 | 3558 ft | 160 kts | 291° |
| 2026-05-06 02:20 | 29.68030 | -101.69248 | 3558 ft | 183 kts | 291° |
| 2026-05-06 02:20 | 29.68520 | -101.70637 | 3518 ft | 191 kts | 291° |
| 2026-05-06 02:20 | 29.69023 | -101.72052 | 3421 ft | 196 kts | 291° |
| 2026-05-06 02:21 | 29.69546 | -101.73507 | 3273 ft | 197 kts | 291° |
| 2026-05-06 02:21 | 29.70055 | -101.74933 | 3415 ft | 181 kts | 291° |
| 2026-05-06 02:21 | 29.70488 | -101.76223 | 3733 ft | 171 kts | 291° |
| 2026-05-06 02:21 | 29.70896 | -101.77492 | 4116 ft | 162 kts | 291° |
| 2026-05-06 02:22 | 29.71290 | -101.78696 | 4366 ft | 161 kts | 291° |
| 2026-05-06 02:22 | 29.71696 | -101.79949 | 4381 ft | 172 kts | 291° |
| 2026-05-06 02:22 | 29.72115 | -101.81244 | 4572 ft | 172 kts | 291° |
| 2026-05-06 02:22 | 29.72526 | -101.82544 | 4769 ft | 173 kts | 291° |
| 2026-05-06 02:23 | 29.72934 | -101.83865 | 4823 ft | 177 kts | 291° |
| 2026-05-06 02:23 | 29.73350 | -101.85205 | 4907 ft | 178 kts | 291° |
| 2026-05-06 02:23 | 29.73769 | -101.86532 | 4927 ft | 175 kts | 291° |
| 2026-05-06 02:23 | 29.74184 | -101.87839 | 4917 ft | 172 kts | 291° |
| 2026-05-06 02:24 | 29.74582 | -101.89100 | 5092 ft | 166 kts | 291° |
| 2026-05-06 02:24 | 29.74948 | -101.90316 | 5577 ft | 160 kts | 291° |
| 2026-05-06 02:24 | 29.75308 | -101.91512 | 5878 ft | 161 kts | 291° |
| 2026-05-06 02:24 | 29.75688 | -101.92724 | 5760 ft | 157 kts | 294° |
| 2026-05-06 02:25 | 29.76099 | -101.93948 | 5686 ft | 164 kts | 294° |
| 2026-05-06 02:25 | 29.76514 | -101.95118 | 5646 ft | 158 kts | 296° |
| 2026-05-06 02:25 | 29.76970 | -101.96282 | 5624 ft | 165 kts | 296° |
| 2026-05-06 02:25 | 29.77433 | -101.97474 | 5645 ft | 162 kts | 296° |
| 2026-05-06 02:26 | 29.77887 | -101.98669 | 5642 ft | 163 kts | 296° |
| 2026-05-06 02:26 | 29.78328 | -101.99876 | 5643 ft | 163 kts | 296° |
| 2026-05-06 02:26 | 29.78768 | -102.01082 | 5641 ft | 164 kts | 296° |
| 2026-05-06 02:26 | 29.79220 | -102.02279 | 5638 ft | 163 kts | 296° |
| 2026-05-06 02:27 | 29.79676 | -102.03480 | 5640 ft | 162 kts | 296° |
| 2026-05-06 02:27 | 29.80134 | -102.04665 | 5640 ft | 162 kts | 296° |
| 2026-05-06 02:27 | 29.80609 | -102.05874 | 5640 ft | 164 kts | 296° |
| 2026-05-06 02:27 | 29.81084 | -102.07081 | 5640 ft | 162 kts | 296° |
| 2026-05-06 02:28 | 29.81559 | -102.08258 | 5640 ft | 164 kts | 296° |
| 2026-05-06 02:28 | 29.82044 | -102.09445 | 5640 ft | 163 kts | 296° |
| 2026-05-06 02:28 | 29.82535 | -102.10638 | 5637 ft | 164 kts | 296° |
| 2026-05-06 02:28 | 29.83026 | -102.11829 | 5638 ft | 167 kts | 296° |
| 2026-05-06 02:29 | 29.83505 | -102.13040 | 5638 ft | 166 kts | 296° |
| 2026-05-06 02:29 | 29.83976 | -102.14220 | 5643 ft | 160 kts | 296° |
| 2026-05-06 02:29 | 29.84420 | -102.15447 | 5636 ft | 175 kts | 292° |
| 2026-05-06 02:29 | 29.84807 | -102.16724 | 5636 ft | 162 kts | 292° |
| 2026-05-06 02:30 | 29.85054 | -102.17549 | 5643 ft | 167 kts | 292° |
| 2026-05-06 02:30 | 29.85547 | -102.19232 | 5645 ft | 165 kts | 292° |
| 2026-05-06 02:30 | 29.85789 | -102.20063 | 5647 ft | 164 kts | 292° |
| 2026-05-06 02:30 | 29.86174 | -102.21288 | 5642 ft | 169 kts | 293° |
| 2026-05-06 02:31 | 29.86581 | -102.22536 | 5640 ft | 163 kts | 293° |
| 2026-05-06 02:31 | 29.86989 | -102.23762 | 5643 ft | 164 kts | 293° |
| 2026-05-06 02:31 | 29.87399 | -102.24981 | 5642 ft | 166 kts | 294° |
| 2026-05-06 02:31 | 29.87808 | -102.26220 | 5641 ft | 171 kts | 294° |
| 2026-05-06 02:32 | 29.88207 | -102.27459 | 5639 ft | 164 kts | 294° |
| 2026-05-06 02:32 | 29.88602 | -102.28690 | 5646 ft | 159 kts | 293° |
| 2026-05-06 02:32 | 29.89007 | -102.29902 | 5640 ft | 165 kts | 294° |
| 2026-05-06 02:32 | 29.89424 | -102.31133 | 5644 ft | 166 kts | 294° |
| 2026-05-06 02:33 | 29.89843 | -102.32366 | 5644 ft | 165 kts | 294° |
| 2026-05-06 02:33 | 29.90118 | -102.33196 | 5646 ft | 167 kts | 294° |
| 2026-05-06 02:34 | 29.91481 | -102.37370 | 5644 ft | 162 kts | 294° |
| 2026-05-06 02:34 | 29.91878 | -102.38589 | 5644 ft | 162 kts | 294° |
| 2026-05-06 02:34 | 29.92278 | -102.39815 | 5643 ft | 166 kts | 294° |
| 2026-05-06 02:34 | 29.92668 | -102.41060 | 5653 ft | 163 kts | 294° |
| 2026-05-06 02:35 | 29.93028 | -102.42265 | 5653 ft | 156 kts | 289° |
| 2026-05-06 02:35 | 29.93200 | -102.43508 | 5651 ft | 159 kts | 278° |
| 2026-05-06 02:35 | 29.93221 | -102.44794 | 5661 ft | 167 kts | 273° |
| 2026-05-06 02:35 | 29.93222 | -102.46114 | 5658 ft | 165 kts | 273° |
| 2026-05-06 02:36 | 29.93221 | -102.47429 | 5654 ft | 164 kts | 273° |
| 2026-05-06 02:36 | 29.93232 | -102.48742 | 5665 ft | 163 kts | 273° |
| 2026-05-06 02:36 | 29.93256 | -102.50036 | 5662 ft | 159 kts | 273° |
| 2026-05-06 02:36 | 29.93285 | -102.51316 | 5660 ft | 162 kts | 273° |
| 2026-05-06 02:37 | 29.93311 | -102.52604 | 5660 ft | 160 kts | 273° |
| 2026-05-06 02:37 | 29.93340 | -102.53877 | 5662 ft | 161 kts | 273° |
| 2026-05-06 02:37 | 29.93353 | -102.55178 | 5660 ft | 163 kts | 273° |
| 2026-05-06 02:37 | 29.93361 | -102.56477 | 5659 ft | 163 kts | 273° |
| 2026-05-06 02:38 | 29.93365 | -102.57793 | 5658 ft | 163 kts | 273° |
| 2026-05-06 02:38 | 29.93383 | -102.59086 | 5658 ft | 160 kts | 273° |
| 2026-05-06 02:38 | 29.93403 | -102.60379 | 5662 ft | 163 kts | 273° |
| 2026-05-06 02:38 | 29.93397 | -102.61684 | 5659 ft | 159 kts | 269° |
| 2026-05-06 02:39 | 29.93208 | -102.62918 | 5673 ft | 154 kts | 256° |
| 2026-05-06 02:39 | 29.92806 | -102.64053 | 5669 ft | 153 kts | 244° |
| 2026-05-06 02:39 | 29.92247 | -102.65092 | 5666 ft | 153 kts | 234° |
| 2026-05-06 02:39 | 29.91570 | -102.66125 | 5668 ft | 163 kts | 233° |
| 2026-05-06 02:40 | 29.90889 | -102.67179 | 5673 ft | 167 kts | 233° |
| 2026-05-06 02:40 | 29.90189 | -102.68222 | 5674 ft | 161 kts | 230° |
| 2026-05-06 02:40 | 29.89464 | -102.69224 | 5664 ft | 161 kts | 230° |
| 2026-05-06 02:40 | 29.88731 | -102.70238 | 5663 ft | 163 kts | 230° |
| 2026-05-06 02:41 | 29.88005 | -102.71239 | 5660 ft | 161 kts | 231° |
| 2026-05-06 02:41 | 29.87268 | -102.72215 | 5664 ft | 165 kts | 229° |
| 2026-05-06 02:41 | 29.86526 | -102.73215 | 5663 ft | 161 kts | 229° |
| 2026-05-06 02:41 | 29.85768 | -102.74209 | 5661 ft | 161 kts | 228° |
| 2026-05-06 02:42 | 29.84995 | -102.75193 | 5664 ft | 165 kts | 228° |
| 2026-05-06 02:42 | 29.84233 | -102.76160 | 5662 ft | 165 kts | 228° |
| 2026-05-06 02:42 | 29.83473 | -102.77135 | 5664 ft | 158 kts | 228° |
| 2026-05-06 02:42 | 29.82691 | -102.78041 | 5664 ft | 162 kts | 228° |
| 2026-05-06 02:43 | 29.81898 | -102.78941 | 5658 ft | 164 kts | 228° |
| 2026-05-06 02:43 | 29.81105 | -102.79843 | 5658 ft | 159 kts | 228° |
| 2026-05-06 02:43 | 29.80304 | -102.80735 | 5659 ft | 157 kts | 230° |
| 2026-05-06 02:43 | 29.79543 | -102.81663 | 5661 ft | 158 kts | 231° |
| 2026-05-06 02:44 | 29.78795 | -102.82599 | 5669 ft | 164 kts | 231° |
| 2026-05-06 02:44 | 29.78028 | -102.83545 | 5663 ft | 161 kts | 231° |
| 2026-05-06 02:44 | 29.77291 | -102.84500 | 5661 ft | 159 kts | 231° |
| 2026-05-06 02:44 | 29.76533 | -102.85433 | 5662 ft | 156 kts | 231° |
| 2026-05-06 02:45 | 29.75800 | -102.86363 | 5658 ft | 157 kts | 232° |
| 2026-05-06 02:45 | 29.75454 | -102.86802 | 5659 ft | 156 kts | 232° |
| 2026-05-06 02:45 | 29.74790 | -102.87648 | 5655 ft | 157 kts | 232° |
| 2026-05-06 02:45 | 29.74068 | -102.88568 | 5654 ft | 155 kts | 232° |
| 2026-05-06 02:46 | 29.73353 | -102.89502 | 5653 ft | 157 kts | 232° |
| 2026-05-06 02:46 | 29.72630 | -102.90430 | 5653 ft | 156 kts | 232° |
| 2026-05-06 02:46 | 29.71915 | -102.91360 | 5652 ft | 155 kts | 232° |
| 2026-05-06 02:46 | 29.71211 | -102.92277 | 5661 ft | 156 kts | 232° |
| 2026-05-06 02:47 | 29.70490 | -102.93211 | 5665 ft | 155 kts | 232° |
| 2026-05-06 02:47 | 29.69766 | -102.94147 | 5665 ft | 155 kts | 232° |
| 2026-05-06 02:47 | 29.69039 | -102.95076 | 5660 ft | 158 kts | 232° |
| 2026-05-06 02:47 | 29.68326 | -102.96020 | 5658 ft | 155 kts | 232° |
| 2026-05-06 02:48 | 29.67596 | -102.96960 | 5658 ft | 160 kts | 232° |
| 2026-05-06 02:48 | 29.66883 | -102.97906 | 5662 ft | 155 kts | 232° |
| 2026-05-06 02:48 | 29.66169 | -102.98842 | 5663 ft | 156 kts | 232° |
| 2026-05-06 02:48 | 29.65443 | -102.99766 | 5660 ft | 156 kts | 232° |
| 2026-05-06 02:49 | 29.64718 | -103.00694 | 5665 ft | 156 kts | 232° |
| 2026-05-06 02:49 | 29.63994 | -103.01623 | 5666 ft | 156 kts | 232° |
| 2026-05-06 02:49 | 29.63268 | -103.02549 | 5660 ft | 155 kts | 232° |
| 2026-05-06 02:49 | 29.62543 | -103.03486 | 5655 ft | 156 kts | 232° |
| 2026-05-06 02:50 | 29.61822 | -103.04429 | 5662 ft | 156 kts | 232° |
| 2026-05-06 02:50 | 29.61117 | -103.05374 | 5662 ft | 155 kts | 232° |
| 2026-05-06 02:50 | 29.60399 | -103.06310 | 5667 ft | 156 kts | 232° |
| 2026-05-06 02:50 | 29.59687 | -103.07254 | 5665 ft | 155 kts | 232° |
| 2026-05-06 02:51 | 29.58963 | -103.08188 | 5662 ft | 154 kts | 232° |
| 2026-05-06 02:51 | 29.58243 | -103.09110 | 5665 ft | 156 kts | 232° |
| 2026-05-06 02:51 | 29.57517 | -103.10049 | 5667 ft | 157 kts | 232° |
| 2026-05-06 02:51 | 29.56794 | -103.10990 | 5673 ft | 157 kts | 232° |
| 2026-05-06 02:52 | 29.56067 | -103.11941 | 5673 ft | 157 kts | 232° |
| 2026-05-06 02:52 | 29.55337 | -103.12885 | 5674 ft | 158 kts | 232° |
| 2026-05-06 02:52 | 29.54612 | -103.13816 | 5669 ft | 151 kts | 232° |
| 2026-05-06 02:52 | 29.53885 | -103.14702 | 5670 ft | 151 kts | 232° |
| 2026-05-06 02:53 | 29.53170 | -103.15585 | 5671 ft | 149 kts | 232° |
| 2026-05-06 02:53 | 29.52469 | -103.16470 | 5670 ft | 154 kts | 232° |
| 2026-05-06 02:53 | 29.51761 | -103.17360 | 5673 ft | 151 kts | 232° |
| 2026-05-06 02:53 | 29.51071 | -103.18250 | 5672 ft | 147 kts | 232° |
| 2026-05-06 02:54 | 29.50369 | -103.19148 | 5668 ft | 152 kts | 232° |
| 2026-05-06 02:54 | 29.49665 | -103.20024 | 5660 ft | 153 kts | 232° |
| 2026-05-06 02:54 | 29.48963 | -103.20924 | 5674 ft | 153 kts | 232° |
| 2026-05-06 02:54 | 29.48260 | -103.21835 | 5674 ft | 153 kts | 232° |
| 2026-05-06 02:55 | 29.47552 | -103.22731 | 5674 ft | 152 kts | 232° |
| 2026-05-06 02:55 | 29.46828 | -103.23651 | 5672 ft | 156 kts | 232° |
| 2026-05-06 02:55 | 29.46146 | -103.24490 | 5679 ft | 130 kts | 232° |
| 2026-05-06 02:55 | 29.45579 | -103.25196 | 5684 ft | 113 kts | 232° |
| 2026-05-06 02:56 | 29.45064 | -103.25820 | 5681 ft | 104 kts | 232° |
| 2026-05-06 02:56 | 29.44572 | -103.26417 | 5672 ft | 103 kts | 232° |
| 2026-05-06 02:56 | 29.44088 | -103.27013 | 5680 ft | 102 kts | 232° |
| 2026-05-06 02:56 | 29.43524 | -103.27743 | 5662 ft | 141 kts | 232° |
| 2026-05-06 02:57 | 29.42755 | -103.28598 | 5662 ft | 166 kts | 220° |
| 2026-05-06 02:57 | 29.41692 | -103.29239 | 5658 ft | 180 kts | 202° |
| 2026-05-06 02:57 | 29.40433 | -103.29468 | 5665 ft | 187 kts | 184° |
| 2026-05-06 02:57 | 29.39281 | -103.29513 | 5679 ft | 159 kts | 184° |
| 2026-05-06 02:58 | 29.38169 | -103.29551 | 5947 ft | 155 kts | 184° |
| 2026-05-06 02:58 | 29.37123 | -103.29586 | 6293 ft | 147 kts | 184° |
| 2026-05-06 02:58 | 29.36108 | -103.29617 | 6569 ft | 145 kts | 184° |
| 2026-05-06 02:58 | 29.35109 | -103.29648 | 6850 ft | 143 kts | 184° |
| 2026-05-06 02:59 | 29.34114 | -103.29667 | 7107 ft | 143 kts | 184° |
| 2026-05-06 02:59 | 29.33073 | -103.29692 | 7155 ft | 149 kts | 184° |
| 2026-05-06 02:59 | 29.32039 | -103.29732 | 7154 ft | 147 kts | 188° |
| 2026-05-06 02:59 | 29.31042 | -103.29978 | 7154 ft | 146 kts | 203° |
| 2026-05-06 03:00 | 29.30113 | -103.30453 | 7150 ft | 149 kts | 201° |
| 2026-05-06 03:00 | 29.29060 | -103.30397 | 7145 ft | 156 kts | 166° |
| 2026-05-06 03:00 | 29.28175 | -103.29684 | 7151 ft | 158 kts | 133° |
| 2026-05-06 03:00 | 29.27868 | -103.28487 | 7074 ft | 163 kts | 88° |
| 2026-05-06 03:01 | 29.28359 | -103.27368 | 7096 ft | 157 kts | 47° |
| 2026-05-06 03:01 | 29.29053 | -103.26500 | 7230 ft | 142 kts | 50° |
| 2026-05-06 03:01 | 29.29376 | -103.25396 | 7195 ft | 152 kts | 88° |
| 2026-05-06 03:01 | 29.28929 | -103.24349 | 7180 ft | 148 kts | 142° |
| 2026-05-06 03:02 | 29.27978 | -103.24155 | 7172 ft | 141 kts | 199° |
| 2026-05-06 03:02 | 29.27325 | -103.24867 | 7177 ft | 128 kts | 249° |
| 2026-05-06 03:02 | 29.27245 | -103.25839 | 7183 ft | 121 kts | 274° |
| 2026-05-06 03:02 | 29.27283 | -103.26851 | 7136 ft | 139 kts | 274° |
| 2026-05-06 03:03 | 29.27072 | -103.28040 | 7121 ft | 169 kts | 246° |
| 2026-05-06 03:03 | 29.26366 | -103.29083 | 7188 ft | 148 kts | 233° |
| 2026-05-06 03:03 | 29.25762 | -103.29988 | 7068 ft | 145 kts | 246° |
| 2026-05-06 03:03 | 29.25734 | -103.31067 | 6917 ft | 137 kts | 297° |
| 2026-05-06 03:04 | 29.26460 | -103.31681 | 6654 ft | 137 kts | 352° |
| 2026-05-06 03:04 | 29.27323 | -103.31248 | 6117 ft | 131 kts | 54° |
| 2026-05-06 03:04 | 29.27561 | -103.30485 | 5997 ft | 86 kts | 79° |
| 2026-05-06 03:04 | 29.27375 | -103.29985 | 5770 ft | 55 kts | 184° |
| 2026-05-06 03:05 | 29.27030 | -103.30033 | 5601 ft | 50 kts | 249° |
| 2026-05-06 03:05 | 29.26912 | -103.30174 | 5493 ft | 25 kts | 1° |
| 2026-05-06 03:05 | 29.27043 | -103.30052 | 5398 ft | 40 kts | 37° |
| 2026-05-06 03:05 | 29.27344 | -103.29835 | 5458 ft | 56 kts | 37° |
| 2026-05-06 03:06 | 29.27807 | -103.29745 | 5403 ft | 74 kts | 8° |
| 2026-05-06 03:06 | 29.28024 | -103.29875 | 5316 ft | 26 kts | 225° |
| 2026-05-06 03:06 | 29.27979 | -103.30111 | 5170 ft | 31 kts | 206° |
| 2026-05-06 03:06 | 29.27989 | -103.30261 | 5127 ft | 10 kts | 206° |
| 2026-05-06 03:07 | 29.27920 | -103.30302 | 5034 ft | 8 kts | 206° |
| 2026-05-06 03:07 | 29.27874 | -103.30282 | 5052 ft | 12 kts | 205° |
| 2026-05-06 03:07 | 29.27745 | -103.30295 | 5164 ft | 26 kts | 206° |
| 2026-05-06 03:07 | 29.27574 | -103.30374 | 5331 ft | 20 kts | 198° |
| 2026-05-06 03:08 | 29.27539 | -103.30466 | 5358 ft | 17 kts | 109° |
| 2026-05-06 03:08 | 29.27583 | -103.30226 | 5224 ft | 41 kts | 7° |
| 2026-05-06 03:08 | 29.27739 | -103.30262 | 5175 ft | 18 kts | 351° |
| 2026-05-06 03:08 | 29.28040 | -103.30637 | 5001 ft | 97 kts | 280° |
| 2026-05-06 03:09 | 29.27748 | -103.31101 | 5259 ft | 55 kts | 123° |
| 2026-05-06 03:09 | 29.27674 | -103.30683 | 5204 ft | 54 kts | 93° |
| 2026-05-06 03:09 | 29.27697 | -103.30510 | 5220 ft | 14 kts | 94° |
| 2026-05-06 03:09 | 29.27681 | -103.30391 | 5127 ft | 13 kts | 94° |
| 2026-05-06 03:10 | 29.27674 | -103.30306 | 4953 ft | 7 kts | 94° |
| 2026-05-06 03:10 | 29.27672 | -103.30291 | 4927 ft | 5 kts | 94° |
| 2026-05-06 03:10 | 29.27672 | -103.30287 | 4925 ft | 0 kts | 95° |
| 2026-05-06 03:15 | 29.27674 | -103.30279 | 4939 ft | 5 kts | 95° |
| 2026-05-06 03:15 | 29.27677 | -103.30262 | 5001 ft | 4 kts | 95° |
| 2026-05-06 03:16 | 29.27633 | -103.30125 | 5070 ft | 27 kts | 107° |
| 2026-05-06 03:16 | 29.27580 | -103.29946 | 5233 ft | 21 kts | 107° |
| 2026-05-06 03:16 | 29.27605 | -103.29651 | 5367 ft | 49 kts | 97° |
| 2026-05-06 03:16 | 29.27622 | -103.29236 | 5614 ft | 56 kts | 107° |
| 2026-05-06 03:17 | 29.27483 | -103.28795 | 5910 ft | 63 kts | 108° |
| 2026-05-06 03:17 | 29.27297 | -103.28284 | 6148 ft | 76 kts | 113° |
| 2026-05-06 03:17 | 29.27002 | -103.27711 | 6401 ft | 93 kts | 112° |
| 2026-05-06 03:17 | 29.26812 | -103.27082 | 6764 ft | 65 kts | 107° |
| 2026-05-06 03:18 | 29.26758 | -103.26899 | 6783 ft | 9 kts | 97° |
| 2026-05-06 03:18 | 29.26712 | -103.26771 | 6723 ft | 27 kts | 95° |
| 2026-05-06 03:18 | 29.26578 | -103.26576 | 6586 ft | 29 kts | 211° |
| 2026-05-06 03:18 | 29.26429 | -103.26590 | 6497 ft | 41 kts | 211° |
| 2026-05-06 03:19 | 29.25886 | -103.27021 | 6489 ft | 132 kts | 232° |
| 2026-05-06 03:19 | 29.25387 | -103.27979 | 6619 ft | 136 kts | 249° |
| 2026-05-06 03:19 | 29.25072 | -103.28959 | 7115 ft | 135 kts | 265° |
| 2026-05-06 03:19 | 29.24988 | -103.30084 | 7194 ft | 153 kts | 278° |
| 2026-05-06 03:20 | 29.25407 | -103.32740 | 7014 ft | 175 kts | 270° |
| 2026-05-06 03:20 | 29.25318 | -103.34095 | 6976 ft | 169 kts | 268° |
| 2026-05-06 03:20 | 29.25229 | -103.35451 | 6982 ft | 173 kts | 268° |
| 2026-05-06 03:21 | 29.25064 | -103.36847 | 6712 ft | 180 kts | 261° |
| 2026-05-06 03:21 | 29.24748 | -103.38246 | 6411 ft | 182 kts | 257° |
| 2026-05-06 03:21 | 29.24353 | -103.39616 | 6177 ft | 174 kts | 253° |
| 2026-05-06 03:21 | 29.23971 | -103.40761 | 6037 ft | 137 kts | 252° |
| 2026-05-06 03:22 | 29.23631 | -103.41696 | 5870 ft | 120 kts | 252° |
| 2026-05-06 03:22 | 29.23308 | -103.42527 | 5607 ft | 109 kts | 252° |
| 2026-05-06 03:22 | 29.23003 | -103.43330 | 5377 ft | 114 kts | 252° |
| 2026-05-06 03:22 | 29.22667 | -103.44197 | 5171 ft | 128 kts | 252° |
| 2026-05-06 03:23 | 29.22311 | -103.45165 | 4876 ft | 135 kts | 252° |
| 2026-05-06 03:23 | 29.21930 | -103.46178 | 4546 ft | 139 kts | 252° |
| 2026-05-06 03:23 | 29.21560 | -103.47210 | 4306 ft | 141 kts | 252° |
| 2026-05-06 03:23 | 29.21201 | -103.48285 | 3981 ft | 148 kts | 252° |
| 2026-05-06 03:24 | 29.20830 | -103.49369 | 3632 ft | 148 kts | 250° |
| 2026-05-06 03:24 | 29.20301 | -103.50395 | 3559 ft | 150 kts | 240° |
| 2026-05-06 03:24 | 29.19724 | -103.51445 | 3363 ft | 159 kts | 240° |
| 2026-05-06 03:24 | 29.19136 | -103.52505 | 3359 ft | 161 kts | 242° |
| 2026-05-06 03:25 | 29.18556 | -103.53656 | 3287 ft | 166 kts | 245° |
| 2026-05-06 03:25 | 29.18092 | -103.54752 | 3192 ft | 142 kts | 250° |
| 2026-05-06 03:25 | 29.17782 | -103.55727 | 3209 ft | 122 kts | 257° |
| 2026-05-06 03:25 | 29.17555 | -103.56596 | 3220 ft | 108 kts | 259° |
| 2026-05-06 03:26 | 29.17346 | -103.57477 | 3303 ft | 127 kts | 260° |
| 2026-05-06 03:26 | 29.17133 | -103.58524 | 3377 ft | 142 kts | 258° |
| 2026-05-06 03:26 | 29.16848 | -103.59697 | 3370 ft | 160 kts | 254° |
| 2026-05-06 03:26 | 29.16538 | -103.60914 | 3326 ft | 160 kts | 257° |
| 2026-05-06 03:27 | 29.16358 | -103.62094 | 3546 ft | 126 kts | 270° |
| 2026-05-06 03:27 | 29.16376 | -103.63127 | 4037 ft | 144 kts | 278° |
| 2026-05-06 03:27 | 29.16291 | -103.64347 | 4011 ft | 157 kts | 264° |
| 2026-05-06 03:27 | 29.16788 | -103.65417 | 3903 ft | 161 kts | 316° |
| 2026-05-06 03:28 | 29.17430 | -103.66403 | 4136 ft | 162 kts | 293° |
| 2026-05-06 03:28 | 29.18023 | -103.67510 | 4201 ft | 160 kts | 320° |
| 2026-05-06 03:28 | 29.19050 | -103.67679 | 4398 ft | 166 kts | 24° |
| 2026-05-06 03:28 | 29.19795 | -103.66640 | 4475 ft | 183 kts | 74° |
| 2026-05-06 03:29 | 29.20062 | -103.65191 | 4624 ft | 187 kts | 73° |
| 2026-05-06 03:29 | 29.20349 | -103.63737 | 4843 ft | 186 kts | 72° |
| 2026-05-06 03:29 | 29.20654 | -103.62287 | 5066 ft | 189 kts | 72° |
| 2026-05-06 03:29 | 29.20985 | -103.60823 | 5208 ft | 191 kts | 72° |
| 2026-05-06 03:30 | 29.21299 | -103.59360 | 5446 ft | 191 kts | 72° |
| 2026-05-06 03:30 | 29.21613 | -103.57904 | 5984 ft | 187 kts | 72° |
| 2026-05-06 03:30 | 29.21942 | -103.56465 | 6584 ft | 186 kts | 72° |
| 2026-05-06 03:30 | 29.22274 | -103.55035 | 7064 ft | 186 kts | 72° |
| 2026-05-06 03:31 | 29.22618 | -103.53579 | 7008 ft | 191 kts | 72° |
| 2026-05-06 03:31 | 29.22966 | -103.52113 | 7035 ft | 190 kts | 72° |
| 2026-05-06 03:31 | 29.23303 | -103.50648 | 7053 ft | 190 kts | 72° |
| 2026-05-06 03:31 | 29.23646 | -103.49190 | 7044 ft | 187 kts | 72° |
| 2026-05-06 03:32 | 29.23995 | -103.47786 | 7039 ft | 184 kts | 72° |
| 2026-05-06 03:32 | 29.24348 | -103.46386 | 7043 ft | 182 kts | 72° |
| 2026-05-06 03:32 | 29.24703 | -103.44984 | 7046 ft | 184 kts | 72° |
| 2026-05-06 03:32 | 29.25057 | -103.43583 | 7048 ft | 183 kts | 72° |
| 2026-05-06 03:33 | 29.25417 | -103.42186 | 7008 ft | 189 kts | 69° |
| 2026-05-06 03:33 | 29.25971 | -103.40770 | 6733 ft | 193 kts | 62° |
| 2026-05-06 03:33 | 29.26501 | -103.39526 | 6704 ft | 158 kts | 62° |
| 2026-05-06 03:33 | 29.26982 | -103.38498 | 6807 ft | 138 kts | 57° |
| 2026-05-06 03:34 | 29.27448 | -103.37563 | 6536 ft | 137 kts | 57° |
| 2026-05-06 03:34 | 29.27984 | -103.36463 | 6177 ft | 176 kts | 57° |
| 2026-05-06 03:34 | 29.28609 | -103.35214 | 5936 ft | 173 kts | 57° |
| 2026-05-06 03:34 | 29.29225 | -103.33992 | 5959 ft | 175 kts | 57° |
| 2026-05-06 03:35 | 29.29844 | -103.32763 | 5804 ft | 179 kts | 57° |
| 2026-05-06 03:35 | 29.30686 | -103.31686 | 5680 ft | 187 kts | 36° |
| 2026-05-06 03:35 | 29.31634 | -103.30838 | 5510 ft | 164 kts | 35° |
| 2026-05-06 03:35 | 29.32576 | -103.30006 | 5332 ft | 168 kts | 35° |
| 2026-05-06 03:36 | 29.33407 | -103.29001 | 5270 ft | 181 kts | 57° |
| 2026-05-06 03:36 | 29.33713 | -103.27593 | 5078 ft | 188 kts | 87° |
| 2026-05-06 03:36 | 29.33555 | -103.26130 | 4834 ft | 174 kts | 98° |
| 2026-05-06 03:36 | 29.33318 | -103.24852 | 4708 ft | 155 kts | 103° |
| 2026-05-06 03:37 | 29.33031 | -103.23668 | 4423 ft | 151 kts | 104° |
| 2026-05-06 03:37 | 29.32787 | -103.22540 | 4371 ft | 143 kts | 103° |
| 2026-05-06 03:37 | 29.32577 | -103.21426 | 4259 ft | 144 kts | 101° |
| 2026-05-06 03:37 | 29.32375 | -103.20291 | 4035 ft | 143 kts | 96° |
| 2026-05-06 03:38 | 29.32108 | -103.19819 | 4158 ft | 72 kts | 238° |
| 2026-05-06 03:38 | 29.32106 | -103.20252 | 4026 ft | 26 kts | 278° |
| 2026-05-06 03:38 | 29.32154 | -103.20418 | 3900 ft | 23 kts | 261° |
| 2026-05-06 03:38 | 29.32172 | -103.20541 | 3860 ft | 12 kts | 260° |
| 2026-05-06 03:39 | 29.32177 | -103.20592 | 3839 ft | 8 kts | 260° |
| 2026-05-06 03:39 | 29.32182 | -103.20624 | 3824 ft | 5 kts | 248° |
| 2026-05-06 03:39 | 29.32180 | -103.20632 | 3818 ft | 0 kts | 241° |